Time;durP1;ratioP1;P1;durP2;ratioP2;P2;SDS_P1;SDS_P2;PMS_P1;PMS_P2;Temp;Humidity;BMP_temperature;BMP_pressure;BME280_temperature;BME280_humidity;BME280_pressure;Samples;Min_cycle;Max_cycle;Signal;HPM_P1;HPM_P2
2021/07/31 00:00:46;;;;;;;0.43;0.43;;;;;;;16.03;74.81;97347.97;6155860;23;20029;-74
2021/07/31 00:03:11;;;;;;;0.82;0.82;;;;;;;16.06;74.61;97344.59;6155804;23;20020;-73
2021/07/31 00:05:37;;;;;;;0.65;0.65;;;;;;;16.10;74.58;97351.13;6156244;23;20080;-76
2021/07/31 00:08:03;;;;;;;0.32;0.32;;;;;;;16.14;74.45;97354.13;6155874;23;20009;-73
2021/07/31 00:10:29;;;;;;;0.40;0.40;;;;;;;16.14;74.54;97351.38;6155158;23;20895;-79
2021/07/31 00:12:54;;;;;;;0.75;0.75;;;;;;;16.20;74.41;97354.84;6155880;23;20040;-79
2021/07/31 00:15:20;;;;;;;3.92;1.63;;;;;;;16.24;74.34;97362.22;6155977;23;20446;-79
2021/07/31 00:17:46;;;;;;;0.60;0.60;;;;;;;16.26;74.30;97357.19;6156024;23;20080;-73
2021/07/31 00:20:12;;;;;;;1.55;1.25;;;;;;;16.31;74.28;97366.53;6156678;23;20140;-73
2021/07/31 00:22:37;;;;;;;1.02;0.70;;;;;;;16.30;74.35;97374.03;6156539;23;20017;-74
2021/07/31 00:25:04;;;;;;;0.40;0.40;;;;;;;16.32;74.22;97355.16;6155828;23;20009;-74
2021/07/31 00:27:30;;;;;;;0.20;0.20;;;;;;;16.32;74.13;97363.47;6155607;23;20443;-78
2021/07/31 00:29:56;;;;;;;0.20;0.20;;;;;;;16.31;74.34;97358.22;6155578;23;20010;-78
2021/07/31 00:32:21;;;;;;;0.10;0.10;;;;;;;16.32;74.12;97357.09;6155527;23;20013;-79
2021/07/31 00:34:47;;;;;;;0.10;0.10;;;;;;;16.31;74.37;97355.47;6156380;23;20370;-76
2021/07/31 00:37:13;;;;;;;0.25;0.25;;;;;;;16.31;74.25;97363.78;6156664;23;20002;-76
2021/07/31 00:39:38;;;;;;;0.57;0.57;;;;;;;16.31;74.11;97361.81;6155339;23;20016;-75
2021/07/31 00:42:09;;;;;;;0.10;0.10;;;;;;;16.32;74.20;97360.69;6155413;23;20014;-73
2021/07/31 00:44:35;;;;;;;0.10;0.10;;;;;;;16.29;74.23;97361.31;6154426;23;20013;-74
2021/07/31 00:47:02;;;;;;;0.17;0.17;;;;;;;16.31;74.19;97358.22;6156175;23;20009;-71
2021/07/31 00:49:30;;;;;;;0.47;0.35;;;;;;;16.35;74.15;97364.81;6156015;23;20012;-74
2021/07/31 00:51:57;;;;;;;0.20;0.20;;;;;;;16.38;74.04;97373.31;6155516;23;20017;-73
2021/07/31 00:54:24;;;;;;;0.68;0.68;;;;;;;16.37;73.92;97374.44;6156103;23;20447;-73
2021/07/31 00:56:49;;;;;;;0.52;0.52;;;;;;;16.39;74.04;97371.38;6155620;23;20021;-74
2021/07/31 00:59:15;;;;;;;0.77;0.77;;;;;;;16.41;74.15;97380.19;6155477;23;20045;-73
2021/07/31 01:01:41;;;;;;;0.30;0.30;;;;;;;16.44;73.89;97377.63;6163831;23;20029;-74
2021/07/31 01:04:08;;;;;;;0.47;0.47;;;;;;;16.47;73.80;97387.25;6173556;23;20013;-74
2021/07/31 01:06:34;;;;;;;0.30;0.30;;;;;;;16.50;73.82;97391.38;6156613;23;20028;-74
2021/07/31 01:09:03;;;;;;;3.30;0.85;;;;;;;16.56;73.64;97395.66;6155582;23;20009;-75
2021/07/31 01:11:29;;;;;;;0.60;0.60;;;;;;;16.63;73.49;97396.06;6153545;23;20017;-74
2021/07/31 01:13:55;;;;;;;0.10;0.10;;;;;;;16.74;73.26;97402.22;6155345;23;20013;-74
2021/07/31 01:16:21;;;;;;;0.38;0.38;;;;;;;16.82;73.23;97410.63;6155284;23;20464;-71
2021/07/31 01:18:47;;;;;;;0.55;0.55;;;;;;;16.89;72.83;97403.88;6155233;23;20091;-71
2021/07/31 01:21:37;;;;;;;0.20;0.20;;;;;;;16.96;72.92;97398.72;6155138;23;20064;-71
2021/07/31 01:24:03;;;;;;;0.20;0.20;;;;;;;16.99;72.92;97409.22;6146352;23;20016;-73
2021/07/31 01:26:30;;;;;;;0.40;0.40;;;;;;;17.05;72.87;97413.50;6155009;23;20020;-71
2021/07/31 01:28:55;;;;;;;0.38;0.38;;;;;;;17.15;72.54;97406.88;6155078;23;20097;-70
2021/07/31 01:31:21;;;;;;;1.08;0.82;;;;;;;17.27;72.52;97409.94;6154867;23;20021;-72
2021/07/31 01:33:47;;;;;;;0.47;0.47;;;;;;;17.33;71.99;97413.44;6155112;23;20097;-73
2021/07/31 01:36:12;;;;;;;0.17;0.17;;;;;;;17.32;72.41;97418.13;6154730;23;20001;-75
2021/07/31 01:38:38;;;;;;;0.20;0.20;;;;;;;17.24;72.54;97415.28;6155073;23;20016;-79
2021/07/31 01:41:04;;;;;;;0.17;0.17;;;;;;;17.13;72.80;97412.75;6154310;23;20013;-76
2021/07/31 01:43:30;;;;;;;0.43;0.43;;;;;;;17.11;72.94;97419.75;6154943;23;20060;-77
2021/07/31 01:45:55;;;;;;;0.10;0.10;;;;;;;17.11;73.08;97422.53;6155149;23;20016;-79
2021/07/31 01:48:21;;;;;;;0.28;0.28;;;;;;;17.14;73.06;97419.13;6153398;23;20014;-78
2021/07/31 01:50:47;;;;;;;0.10;0.10;;;;;;;17.20;72.89;97420.66;6155017;23;20006;-79
2021/07/31 01:53:12;;;;;;;0.13;0.13;;;;;;;17.23;72.91;97430.31;6154987;23;20320;-77
2021/07/31 01:55:38;;;;;;;0.10;0.10;;;;;;;17.29;72.75;97424.31;6154989;23;20009;-78
2021/07/31 01:58:04;;;;;;;0.25;0.25;;;;;;;17.39;72.51;97431.59;6153572;23;20013;-75
2021/07/31 02:00:29;;;;;;;0.20;0.20;;;;;;;17.47;72.16;97425.28;6155039;23;20456;-79
2021/07/31 02:02:55;;;;;;;0.43;0.43;;;;;;;17.52;72.11;97427.13;6154607;23;20013;-78
2021/07/31 02:05:21;;;;;;;0.57;0.52;;;;;;;17.54;72.24;97419.31;6155294;23;20014;-78
2021/07/31 02:07:47;;;;;;;0.17;0.17;;;;;;;17.50;72.25;97418.28;6155187;23;20017;-78
2021/07/31 02:10:12;;;;;;;0.32;0.32;;;;;;;17.63;72.04;97422.97;6153580;23;20041;-73
2021/07/31 02:12:38;;;;;;;4.63;0.25;;;;;;;18.02;70.81;97424.25;6154796;23;20017;-71
2021/07/31 02:15:04;;;;;;;0.32;0.32;;;;;;;18.39;69.85;97410.22;6154628;23;20096;-78
2021/07/31 02:17:32;;;;;;;0.10;0.10;;;;;;;18.83;68.99;97425.06;6155363;23;20013;-77
2021/07/31 02:19:58;;;;;;;0.20;0.20;;;;;;;19.17;68.17;97426.31;6154850;23;20009;-76
2021/07/31 02:22:23;;;;;;;0.20;0.20;;;;;;;19.43;67.58;97426.34;6155608;23;20025;-78
2021/07/31 02:24:49;;;;;;;0.28;0.28;;;;;;;19.84;66.67;97429.78;6154942;23;20013;-77
2021/07/31 02:27:15;;;;;;;1.45;0.55;;;;;;;20.42;65.35;97429.47;6155074;23;20438;-80
2021/07/31 02:29:41;;;;;;;0.65;0.40;;;;;;;20.90;64.40;97431.06;6155315;23;20009;-79
2021/07/31 02:32:07;;;;;;;0.10;0.10;;;;;;;21.50;63.33;97426.28;6155080;23;20017;-77
2021/07/31 02:34:33;;;;;;;0.10;0.10;;;;;;;22.63;61.07;97434.69;6155230;23;20020;-78
2021/07/31 02:36:58;;;;;;;0.10;0.10;;;;;;;22.91;60.46;97440.41;6155552;23;20010;-77
2021/07/31 02:39:24;;;;;;;0.10;0.10;;;;;;;22.90;61.19;97435.97;6154959;23;20013;-77
2021/07/31 02:41:50;;;;;;;0.20;0.20;;;;;;;22.66;61.82;97431.22;6154271;23;20451;-77
2021/07/31 02:44:15;;;;;;;0.77;0.60;;;;;;;22.95;61.63;97432.13;6154629;23;20418;-77
2021/07/31 02:46:41;;;;;;;0.10;0.10;;;;;;;24.19;59.03;97437.44;6154712;23;20013;-76
2021/07/31 02:49:07;;;;;;;0.28;0.28;;;;;;;24.75;57.76;97448.59;6154807;23;20029;-80
2021/07/31 02:51:33;;;;;;;0.10;0.10;;;;;;;24.25;59.49;97448.06;6154623;23;20021;-78
2021/07/31 02:53:58;;;;;;;0.20;0.20;;;;;;;23.49;61.36;97455.44;6153866;23;20005;-77
2021/07/31 02:56:24;;;;;;;0.10;0.10;;;;;;;22.78;63.76;97449.19;6154990;23;20009;-80
2021/07/31 02:58:50;;;;;;;0.28;0.22;;;;;;;22.16;65.10;97446.25;6156386;23;20025;-77
2021/07/31 03:01:16;;;;;;;0.95;0.55;;;;;;;21.69;66.54;97456.50;6155216;23;20049;-78
2021/07/31 03:03:42;;;;;;;0.32;0.32;;;;;;;21.39;66.90;97464.09;6155662;23;20017;-79
2021/07/31 03:06:08;;;;;;;0.15;0.15;;;;;;;21.08;67.73;97456.09;6155140;23;20014;-79
2021/07/31 03:08:33;;;;;;;0.22;0.22;;;;;;;20.97;67.76;97459.28;6155565;23;20013;-77
2021/07/31 03:11:05;;;;;;;0.85;0.50;;;;;;;20.87;67.54;97454.06;6173009;23;20462;-79
2021/07/31 03:13:31;;;;;;;1.52;0.40;;;;;;;20.71;68.21;97458.59;6164933;23;20017;-77
2021/07/31 03:15:57;;;;;;;0.10;0.10;;;;;;;20.46;68.59;97461.09;6160214;23;20021;-79
2021/07/31 03:18:23;;;;;;;0.30;0.30;;;;;;;20.31;68.75;97465.25;6157537;23;20019;-79
2021/07/31 03:20:52;;;;;;;0.10;0.10;;;;;;;20.16;69.09;97463.81;6156581;23;20407;-72
2021/07/31 03:23:20;;;;;;;0.25;0.25;;;;;;;20.11;68.90;97466.75;6156548;23;20010;-73
2021/07/31 03:25:46;;;;;;;0.25;0.25;;;;;;;19.99;68.88;97477.78;6156464;23;20104;-73
2021/07/31 03:28:12;;;;;;;0.20;0.20;;;;;;;19.81;69.00;97463.84;6155068;23;20017;-69
2021/07/31 03:30:43;;;;;;;0.68;0.68;;;;;;;19.67;69.68;97475.13;6156613;23;20088;-72
2021/07/31 03:33:10;;;;;;;0.43;0.43;;;;;;;19.57;69.55;97484.63;6156125;23;20017;-70
2021/07/31 03:35:37;;;;;;;0.38;0.38;;;;;;;19.52;69.68;97473.66;6156053;23;20013;-71
2021/07/31 03:38:03;;;;;;;0.38;0.38;;;;;;;19.58;69.10;97475.13;6156681;23;20017;-72
2021/07/31 03:40:29;;;;;;;0.10;0.10;;;;;;;19.75;68.65;97477.09;6155463;23;20090;-73
2021/07/31 03:42:55;;;;;;;0.65;0.65;;;;;;;19.93;68.10;97482.69;6156010;23;20014;-73
2021/07/31 03:45:21;;;;;;;0.10;0.10;;;;;;;20.06;67.87;97476.13;6156120;23;20010;-73
2021/07/31 03:47:47;;;;;;;0.10;0.10;;;;;;;20.18;67.10;97491.34;6155946;23;20010;-73
2021/07/31 03:50:13;;;;;;;0.40;0.40;;;;;;;20.24;66.98;97495.59;6156220;23;20009;-75
2021/07/31 03:52:38;;;;;;;0.20;0.20;;;;;;;20.24;67.20;97493.66;6155643;23;20018;-72
2021/07/31 03:55:06;;;;;;;0.77;0.77;;;;;;;20.21;67.13;97485.13;6154698;23;20017;-74
2021/07/31 03:57:32;;;;;;;0.22;0.22;;;;;;;20.35;66.55;97496.09;6155009;23;20104;-74
2021/07/31 03:59:57;;;;;;;0.55;0.52;;;;;;;20.38;66.75;97496.22;6155117;23;20362;-74
2021/07/31 04:02:23;;;;;;;0.43;0.43;;;;;;;20.34;67.00;97502.78;6154853;23;20093;-73
2021/07/31 04:04:49;;;;;;;0.20;0.20;;;;;;;20.30;66.80;97495.09;6154584;23;20092;-73
2021/07/31 04:07:15;;;;;;;0.10;0.10;;;;;;;20.29;66.99;97496.25;6154387;23;20096;-73
2021/07/31 04:09:40;;;;;;;0.40;0.40;;;;;;;20.36;66.88;97494.91;6154756;23;20437;-75
2021/07/31 04:12:06;;;;;;;0.30;0.30;;;;;;;20.47;66.72;97494.22;6153825;23;20057;-75
2021/07/31 04:14:32;;;;;;;0.35;0.35;;;;;;;20.57;66.32;97498.63;6154657;23;20096;-75
2021/07/31 04:16:58;;;;;;;0.57;0.57;;;;;;;20.56;66.43;97499.78;6150998;23;20033;-71
2021/07/31 04:19:24;;;;;;;0.68;0.68;;;;;;;20.55;66.52;97498.13;6154429;23;20020;-74
2021/07/31 04:21:53;;;;;;;0.20;0.20;;;;;;;20.57;66.49;97501.41;6151794;23;20018;-74
2021/07/31 04:24:20;;;;;;;0.13;0.13;;;;;;;20.69;66.01;97488.78;6154236;23;20096;-76
2021/07/31 04:26:46;;;;;;;0.30;0.30;;;;;;;21.09;65.18;97492.03;6154876;23;20395;-75
2021/07/31 04:29:11;;;;;;;0.40;0.40;;;;;;;21.61;64.00;97501.28;6154762;23;20443;-72
2021/07/31 04:31:37;;;;;;;0.20;0.20;;;;;;;22.25;62.47;97491.69;6152516;23;20020;-75
2021/07/31 04:34:03;;;;;;;0.40;0.40;;;;;;;23.04;60.74;97497.22;6155647;23;20010;-74
2021/07/31 04:36:29;;;;;;;0.38;0.38;;;;;;;23.58;59.23;97495.34;6154311;23;20009;-74
2021/07/31 04:38:54;;;;;;;0.35;0.35;;;;;;;23.78;59.37;97502.75;6154614;23;20009;-74
2021/07/31 04:41:20;;;;;;;0.10;0.10;;;;;;;23.97;59.02;97501.34;6153707;23;20013;-74
2021/07/31 04:43:46;;;;;;;0.30;0.30;;;;;;;23.99;59.42;97506.59;6154172;23;20013;-72
2021/07/31 04:46:12;;;;;;;0.10;0.10;;;;;;;23.94;59.94;97497.25;6152961;23;20434;-74
2021/07/31 04:48:37;;;;;;;0.10;0.10;;;;;;;23.97;59.71;97501.34;6154606;23;20403;-74
2021/07/31 04:51:04;;;;;;;0.10;0.10;;;;;;;24.05;59.97;97493.97;6154120;23;20017;-74
2021/07/31 04:53:30;;;;;;;0.30;0.30;;;;;;;24.03;59.81;97494.31;6154106;23;20037;-74
2021/07/31 04:55:57;;;;;;;0.20;0.20;;;;;;;24.01;60.06;97493.84;6154314;23;20029;-74
2021/07/31 04:58:23;;;;;;;0.52;0.38;;;;;;;23.95;60.42;97500.88;6154546;23;20013;-75
2021/07/31 05:00:49;;;;;;;0.20;0.20;;;;;;;23.79;61.09;97498.81;6154170;23;20044;-74
2021/07/31 05:03:16;;;;;;;0.20;0.20;;;;;;;24.47;59.43;97494.34;6154357;23;20017;-73
2021/07/31 05:05:43;;;;;;;0.40;0.40;;;;;;;24.86;58.85;97498.59;6154651;23;20005;-73
2021/07/31 05:08:09;;;;;;;0.30;0.30;;;;;;;25.19;57.65;97496.22;6154057;23;20093;-74
2021/07/31 05:10:40;;;;;;;0.10;0.10;;;;;;;25.25;57.95;97493.94;6153439;23;20017;-75
2021/07/31 05:13:07;;;;;;;0.30;0.30;;;;;;;24.97;58.88;97505.25;6153832;23;20040;-74
2021/07/31 05:16:07;;;;;;;0.20;0.20;;;;;;;24.54;60.06;97492.91;6152838;23;20115;-74
2021/07/31 05:18:33;;;;;;;0.30;0.30;;;;;;;24.05;60.89;97499.56;6173215;23;20017;-74
2021/07/31 05:20:59;;;;;;;0.10;0.10;;;;;;;23.55;62.26;97501.66;6154599;23;20328;-75
2021/07/31 05:23:25;;;;;;;0.10;0.10;;;;;;;23.16;63.00;97502.03;6153385;23;20009;-73
2021/07/31 05:25:51;;;;;;;0.30;0.30;;;;;;;23.05;63.23;97498.84;6153472;23;20013;-71
2021/07/31 05:28:17;;;;;;;0.63;0.63;;;;;;;23.06;62.67;97506.09;6153858;23;20500;-71
2021/07/31 05:30:43;;;;;;;0.20;0.20;;;;;;;22.94;62.90;97497.69;6153184;23;20013;-72
2021/07/31 05:33:09;;;;;;;0.10;0.10;;;;;;;22.85;63.11;97505.34;6152487;23;20025;-76
2021/07/31 05:35:35;;;;;;;0.47;0.40;;;;;;;22.92;62.64;97505.59;6148808;23;20017;-71
2021/07/31 05:38:02;;;;;;;0.00;0.00;;;;;;;23.54;61.13;97503.66;6150019;23;20017;-72
2021/07/31 05:40:28;;;;;;;0.17;0.17;;;;;;;24.18;59.58;97500.34;6150505;23;20055;-72
2021/07/31 05:42:54;;;;;;;0.17;0.17;;;;;;;24.62;58.60;97501.19;6153857;23;20013;-79
2021/07/31 05:45:20;;;;;;;0.10;0.10;;;;;;;25.14;57.53;97498.47;6153662;23;20093;-72
2021/07/31 05:47:45;;;;;;;0.30;0.30;;;;;;;25.46;56.77;97498.47;6153557;23;20063;-71
2021/07/31 05:50:12;;;;;;;0.38;0.13;;;;;;;25.48;57.24;97496.91;6153519;23;20013;-69
2021/07/31 05:52:39;;;;;;;0.40;0.25;;;;;;;25.33;57.39;97490.13;6151261;23;20013;-66
2021/07/31 05:55:06;;;;;;;0.13;0.13;;;;;;;25.12;58.16;97493.22;6152521;23;20009;-72
2021/07/31 05:57:33;;;;;;;0.10;0.10;;;;;;;25.14;58.17;97484.44;6153213;23;20385;-74
2021/07/31 05:59:59;;;;;;;0.40;0.25;;;;;;;25.14;57.81;97490.06;6152841;23;20048;-71
2021/07/31 06:02:25;;;;;;;0.10;0.10;;;;;;;25.05;58.24;97484.63;6151379;23;20447;-73
2021/07/31 06:04:51;;;;;;;0.22;0.22;;;;;;;24.96;58.33;97486.81;6153576;23;20013;-73
2021/07/31 06:07:17;;;;;;;0.15;0.15;;;;;;;25.01;58.06;97489.31;6153156;23;20088;-74
2021/07/31 06:09:50;;;;;;;1.38;0.32;;;;;;;25.26;57.98;97489.13;6153254;23;20017;-71
2021/07/31 06:12:17;;;;;;;0.17;0.17;;;;;;;25.45;57.55;97485.59;6152625;23;20021;-73
2021/07/31 06:14:43;;;;;;;0.08;0.08;;;;;;;25.52;57.21;97485.75;6153023;23;20018;-72
2021/07/31 06:17:08;;;;;;;0.17;0.17;;;;;;;25.39;57.39;97493.50;6153527;23;20071;-71
2021/07/31 06:19:34;;;;;;;0.13;0.13;;;;;;;25.13;58.07;97496.84;6152986;23;20013;-73
2021/07/31 06:22:02;;;;;;;0.98;0.55;;;;;;;24.63;59.18;97490.75;6153169;23;20029;-74
2021/07/31 06:24:28;;;;;;;0.30;0.30;;;;;;;24.18;60.05;97506.75;6153312;23;20010;-72
2021/07/31 06:26:54;;;;;;;0.57;0.50;;;;;;;23.81;60.85;97506.84;6153326;23;20020;-71
2021/07/31 06:29:21;;;;;;;0.20;0.20;;;;;;;23.65;61.18;97498.38;6152620;23;20156;-74
2021/07/31 06:31:47;;;;;;;0.03;0.03;;;;;;;23.51;61.21;97493.16;6153394;23;20518;-74
2021/07/31 06:34:13;;;;;;;0.10;0.10;;;;;;;23.37;61.40;97513.09;6153728;23;20516;-75
2021/07/31 06:36:39;;;;;;;0.45;0.38;;;;;;;23.33;61.39;97514.97;6153436;23;20009;-74
2021/07/31 06:39:05;;;;;;;2.35;0.90;;;;;;;23.34;61.05;97521.41;6153081;23;20036;-73
2021/07/31 06:41:31;;;;;;;0.10;0.10;;;;;;;23.42;60.46;97524.09;6152752;23;20780;-72
2021/07/31 06:43:57;;;;;;;1.23;0.63;;;;;;;23.49;60.24;97515.06;6153683;23;20017;-72
2021/07/31 06:46:27;;;;;;;0.10;0.10;;;;;;;23.43;60.04;97519.28;6153135;23;20037;-68
2021/07/31 06:48:53;;;;;;;1.13;0.90;;;;;;;23.46;60.20;97520.59;6154448;23;20041;-77
2021/07/31 06:51:22;;;;;;;0.10;0.10;;;;;;;23.54;59.45;97516.81;6156490;23;20014;-69
2021/07/31 06:53:50;;;;;;;0.10;0.10;;;;;;;23.58;59.49;97517.75;6156545;23;20017;-73
2021/07/31 06:56:16;;;;;;;0.95;0.68;;;;;;;23.83;59.12;97526.13;6156257;23;20016;-72
2021/07/31 06:58:42;;;;;;;0.05;0.05;;;;;;;24.03;58.16;97527.97;6155900;23;20407;-68
2021/07/31 07:01:11;;;;;;;0.68;0.68;;;;;;;24.27;57.55;97523.44;6156460;23;20010;-76
2021/07/31 07:03:39;;;;;;;0.32;0.30;;;;;;;24.64;57.00;97520.47;6155986;23;20010;-74
2021/07/31 07:06:06;;;;;;;0.22;0.22;;;;;;;25.17;55.72;97532.25;6156039;23;20014;-68
2021/07/31 07:08:32;;;;;;;0.10;0.10;;;;;;;25.50;55.11;97533.91;6154308;23;20068;-70
2021/07/31 07:11:02;;;;;;;0.13;0.13;;;;;;;25.55;55.17;97538.44;6153364;23;20014;-71
2021/07/31 07:13:27;;;;;;;0.22;0.10;;;;;;;25.72;54.90;97534.38;6154236;23;20038;-71
2021/07/31 07:15:53;;;;;;;0.15;0.15;;;;;;;25.83;54.90;97541.06;6154546;23;20064;-67
2021/07/31 07:18:20;;;;;;;0.10;0.10;;;;;;;25.90;54.58;97540.44;6154206;23;20009;-68
2021/07/31 07:20:48;;;;;;;0.50;0.45;;;;;;;26.04;54.36;97535.16;6154733;23;20321;-69
2021/07/31 07:23:14;;;;;;;0.25;0.25;;;;;;;26.10;54.38;97544.09;6158558;23;20073;-68
2021/07/31 07:25:42;;;;;;;3.20;0.38;;;;;;;26.03;54.54;97538.31;6172258;23;20013;-76
2021/07/31 07:28:08;;;;;;;0.10;0.10;;;;;;;25.95;55.06;97542.13;6159635;23;20037;-73
2021/07/31 07:30:34;;;;;;;0.20;0.15;;;;;;;25.91;55.22;97544.03;6154429;23;20396;-69
2021/07/31 07:33:02;;;;;;;0.10;0.10;;;;;;;26.05;54.85;97536.75;6154702;23;20398;-70
2021/07/31 07:35:28;;;;;;;0.13;0.13;;;;;;;26.19;54.91;97541.91;6154206;23;20097;-68
2021/07/31 07:38:56;;;;;;;0.28;0.28;;;;;;;26.17;54.79;97532.19;6155085;23;20040;-77
2021/07/31 07:41:44;;;;;;;0.60;0.60;;;;;;;25.77;55.59;97522.88;6137696;23;20018;-77
2021/07/31 07:44:10;;;;;;;0.10;0.10;;;;;;;25.59;56.12;97532.88;6157002;23;20378;-71
2021/07/31 07:46:38;;;;;;;0.77;0.43;;;;;;;25.48;56.13;97527.81;6158355;23;20088;-81
2021/07/31 07:49:04;;;;;;;1.65;0.25;;;;;;;25.48;56.17;97535.44;6154315;23;20006;-73
2021/07/31 07:51:29;;;;;;;0.43;0.43;;;;;;;25.28;56.76;97531.72;6154691;23;20025;-76
2021/07/31 07:53:55;;;;;;;1.27;0.20;;;;;;;25.12;57.03;97534.56;6154420;23;20019;-70
2021/07/31 07:56:21;;;;;;;0.17;0.17;;;;;;;24.84;57.33;97536.25;6152814;23;20017;-74
2021/07/31 07:58:48;;;;;;;0.20;0.20;;;;;;;24.65;57.68;97536.13;6154196;23;20101;-73
2021/07/31 08:01:13;;;;;;;0.15;0.15;;;;;;;24.53;58.04;97533.34;6154083;23;20033;-71
2021/07/31 08:03:39;;;;;;;0.82;0.20;;;;;;;24.43;58.00;97534.69;6152653;23;20032;-72
2021/07/31 08:06:05;;;;;;;0.15;0.15;;;;;;;24.47;57.85;97530.81;6154318;23;20036;-76
2021/07/31 08:08:31;;;;;;;0.10;0.10;;;;;;;24.49;57.68;97536.88;6154361;23;20265;-73
2021/07/31 08:10:56;;;;;;;0.20;0.17;;;;;;;24.56;57.24;97532.63;6153260;23;20405;-71
2021/07/31 08:13:22;;;;;;;0.55;0.22;;;;;;;24.59;56.93;97523.56;6154430;23;20013;-65
2021/07/31 08:15:48;;;;;;;0.30;0.30;;;;;;;24.66;56.86;97524.56;6154113;23;20091;-72
2021/07/31 08:18:13;;;;;;;0.30;0.30;;;;;;;24.76;56.51;97533.59;6152995;23;20017;-72
2021/07/31 08:20:39;;;;;;;0.32;0.32;;;;;;;24.89;56.19;97526.72;6153063;23;20040;-71
2021/07/31 08:23:05;;;;;;;5.47;0.60;;;;;;;25.01;55.59;97526.66;6153860;23;20121;-70
2021/07/31 08:25:30;;;;;;;0.32;0.13;;;;;;;25.19;55.16;97534.69;6153955;23;20037;-70
2021/07/31 08:27:56;;;;;;;0.88;0.22;;;;;;;25.28;55.25;97526.94;6154649;23;20096;-73
2021/07/31 08:30:22;;;;;;;0.25;0.13;;;;;;;25.27;55.26;97527.28;6154039;23;20013;-74
2021/07/31 08:32:48;;;;;;;0.10;0.10;;;;;;;25.27;55.27;97528.09;6154763;23;20043;-70
2021/07/31 08:35:14;;;;;;;0.65;0.30;;;;;;;25.30;55.22;97523.75;6152415;23;20017;-69
2021/07/31 08:37:40;;;;;;;0.43;0.43;;;;;;;25.29;55.18;97522.09;6153326;23;20016;-67
2021/07/31 08:40:13;;;;;;;0.10;0.10;;;;;;;25.40;54.91;97509.19;6153387;23;20010;-73
2021/07/31 08:42:42;;;;;;;0.23;0.23;;;;;;;25.42;55.02;97509.63;6153893;23;20020;-72
2021/07/31 08:45:12;;;;;;;0.10;0.10;;;;;;;25.39;54.89;97501.13;6153849;23;20020;-70
2021/07/31 08:47:39;;;;;;;0.68;0.68;;;;;;;25.36;54.75;97513.88;6153476;23;20033;-73
2021/07/31 08:50:07;;;;;;;0.10;0.10;;;;;;;25.35;55.07;97504.66;6151385;23;20384;-72
2021/07/31 08:52:33;;;;;;;0.50;0.35;;;;;;;25.33;54.91;97517.44;6153484;23;20017;-72
2021/07/31 08:55:00;;;;;;;0.30;0.30;;;;;;;25.29;55.12;97500.44;6153128;23;20017;-71
2021/07/31 08:57:25;;;;;;;0.20;0.20;;;;;;;25.23;54.98;97506.72;6153423;23;20405;-72
2021/07/31 08:59:53;;;;;;;0.35;0.35;;;;;;;25.13;55.02;97502.47;6153524;23;20021;-71
2021/07/31 09:02:20;;;;;;;0.13;0.13;;;;;;;25.03;55.12;97498.22;6153450;23;20016;-70
2021/07/31 09:04:47;;;;;;;0.15;0.15;;;;;;;24.98;55.32;97506.91;6152848;23;20013;-72
2021/07/31 09:07:14;;;;;;;0.32;0.32;;;;;;;25.04;55.40;97497.03;6153233;23;20016;-68
2021/07/31 09:09:40;;;;;;;0.10;0.10;;;;;;;25.24;54.82;97499.94;6153516;23;20009;-69
2021/07/31 09:12:09;;;;;;;0.10;0.10;;;;;;;25.30;54.60;97484.41;6152197;23;20014;-67
2021/07/31 09:14:37;;;;;;;0.90;0.45;;;;;;;25.29;54.46;97496.81;6152072;23;20101;-64
2021/07/31 09:17:03;;;;;;;0.20;0.20;;;;;;;25.24;54.76;97491.50;6154818;23;20427;-69
2021/07/31 09:19:29;;;;;;;0.35;0.10;;;;;;;25.10;54.78;97498.41;6153267;23;20014;-68
2021/07/31 09:22:04;;;;;;;1.35;0.30;;;;;;;24.91;55.49;97496.31;6154559;23;20092;-72
2021/07/31 09:24:30;;;;;;;1.10;0.63;;;;;;;24.82;55.44;97495.66;6155115;23;20016;-70
2021/07/31 09:26:56;;;;;;;0.45;0.45;;;;;;;24.86;55.36;97504.19;6155265;23;20014;-67
2021/07/31 09:29:30;;;;;;;0.57;0.30;;;;;;;24.92;55.24;97485.91;6159441;23;20095;-70
2021/07/31 09:32:06;;;;;;;;;;;;;;;24.93;55.20;97496.75;6172329;23;20057;-71
2021/07/31 09:34:33;;;;;;;0.75;0.75;;;;;;;24.98;55.15;97504.09;6159701;23;19924;-75
2021/07/31 09:37:38;;;;;;;0.47;0.47;;;;;;;25.15;54.51;97495.31;6155437;23;20009;-74
2021/07/31 09:40:04;;;;;;;;;;;;;;;25.28;54.49;97490.41;6155232;23;20021;-75
2021/07/31 09:42:32;;;;;;;0.28;0.28;;;;;;;25.35;54.11;97492.59;6153868;23;19908;-74
2021/07/31 09:45:06;;;;;;;0.70;0.55;;;;;;;25.34;53.78;97488.97;6154848;23;20010;-75
2021/07/31 09:47:32;;;;;;;0.10;0.10;;;;;;;25.35;54.02;97496.22;6155125;23;20001;-78
2021/07/31 09:49:58;;;;;;;0.10;0.10;;;;;;;25.39;54.06;97487.06;6154653;23;20100;-77
2021/07/31 09:52:25;;;;;;;0.08;0.08;;;;;;;25.54;53.55;97483.38;6154446;23;20124;-74
2021/07/31 09:54:52;;;;;;;0.20;0.20;;;;;;;25.65;53.60;97473.22;6154737;23;20032;-75
2021/07/31 09:57:18;;;;;;;0.15;0.15;;;;;;;25.87;52.89;97477.31;6154947;23;20013;-77
2021/07/31 09:59:48;;;;;;;0.68;0.50;;;;;;;26.11;52.47;97474.59;6154736;23;20053;-75
2021/07/31 10:02:18;;;;;;;0.10;0.10;;;;;;;26.12;52.23;97473.41;6154930;23;20017;-75
2021/07/31 10:04:46;;;;;;;1.30;0.40;;;;;;;26.26;52.20;97472.88;6153499;23;20012;-73
2021/07/31 10:07:15;;;;;;;0.10;0.10;;;;;;;26.42;51.62;97464.34;6155134;23;20005;-75
2021/07/31 10:09:45;;;;;;;0.63;0.63;;;;;;;26.38;52.04;97467.09;6155309;23;20005;-74
2021/07/31 10:12:14;;;;;;;0.43;0.43;;;;;;;26.40;51.87;97465.53;6153528;23;20021;-75
2021/07/31 10:14:40;;;;;;;0.65;0.32;;;;;;;26.36;52.10;97461.03;6153617;23;20009;-73
2021/07/31 10:17:07;;;;;;;0.40;0.40;;;;;;;26.28;52.06;97459.25;6155041;23;20060;-79
2021/07/31 10:19:45;;;;;;;0.10;0.10;;;;;;;26.16;52.35;97457.41;6154804;23;20044;-77
2021/07/31 10:22:13;;;;;;;0.43;0.43;;;;;;;25.94;53.03;97458.94;6154740;23;20060;-76
2021/07/31 10:24:53;;;;;;;0.10;0.10;;;;;;;25.71;53.35;97454.06;6156973;23;20009;-77
2021/07/31 10:27:23;;;;;;;0.32;0.32;;;;;;;25.55;53.41;97461.75;6153795;23;20021;-78
2021/07/31 10:29:51;;;;;;;0.10;0.10;;;;;;;25.39;53.98;97448.53;6156952;23;20323;-78
2021/07/31 10:32:19;;;;;;;0.57;0.30;;;;;;;25.32;53.65;97445.56;6156585;23;20017;-77
2021/07/31 10:34:49;;;;;;;0.17;0.17;;;;;;;25.30;53.67;97442.28;6156715;23;20044;-78
2021/07/31 10:37:29;;;;;;;0.13;0.13;;;;;;;25.28;53.54;97441.81;6157011;23;20006;-76
2021/07/31 10:39:57;;;;;;;0.20;0.20;;;;;;;25.19;53.54;97440.03;6157112;23;20009;-79
2021/07/31 10:42:23;;;;;;;0.43;0.43;;;;;;;25.18;53.35;97441.22;6155942;23;20080;-76
2021/07/31 10:45:17;;;;;;;0.80;0.80;;;;;;;25.25;53.25;97432.16;6157133;23;20010;-74
2021/07/31 10:47:47;;;;;;;0.23;0.23;;;;;;;25.35;52.91;97431.59;6156417;23;20049;-74
2021/07/31 10:50:22;;;;;;;0.10;0.10;;;;;;;25.45;52.68;97444.25;6155838;23;20529;-75
2021/07/31 10:53:03;;;;;;;0.30;0.30;;;;;;;25.59;52.48;97432.53;6154360;23;20072;-74
2021/07/31 10:55:38;;;;;;;0.22;0.20;;;;;;;25.74;52.17;97419.59;6154714;23;20013;-75
2021/07/31 10:58:13;;;;;;;1.15;0.10;;;;;;;25.71;52.13;97428.75;6156249;23;20005;-74
2021/07/31 11:00:44;;;;;;;0.10;0.10;;;;;;;25.65;52.18;97428.25;6156681;23;20017;-76
2021/07/31 11:03:15;;;;;;;0.10;0.10;;;;;;;25.56;52.40;97421.19;6157151;23;20042;-76
2021/07/31 11:06:00;;;;;;;0.38;0.38;;;;;;;25.28;52.87;97420.19;6155601;23;20035;-75
2021/07/31 11:08:30;;;;;;;0.30;0.30;;;;;;;25.02;53.66;97423.56;6156636;23;20013;-75
2021/07/31 11:11:00;;;;;;;0.35;0.15;;;;;;;24.78;53.96;97419.00;6156300;23;20009;-75
2021/07/31 11:13:26;;;;;;;0.55;0.25;;;;;;;24.62;54.24;97428.22;6156426;23;20018;-75
2021/07/31 11:16:04;;;;;;;0.20;0.20;;;;;;;24.59;54.11;97414.09;6153838;23;20019;-75
2021/07/31 11:18:36;;;;;;;0.32;0.32;;;;;;;24.62;53.80;97416.19;6156279;23;20009;-74
2021/07/31 11:21:23;;;;;;;0.20;0.20;;;;;;;24.86;53.48;97414.38;6154964;23;20014;-74
2021/07/31 11:23:57;;;;;;;0.30;0.30;;;;;;;24.92;53.01;97410.91;6156201;23;20032;-74
2021/07/31 11:26:36;;;;;;;0.22;0.22;;;;;;;25.03;53.05;97413.97;6154250;23;20086;-74
2021/07/31 11:29:07;;;;;;;0.00;0.00;;;;;;;25.09;52.63;97406.06;6156606;23;20036;-74
2021/07/31 11:31:33;;;;;;;0.55;0.20;;;;;;;25.04;52.79;97412.78;6156507;23;20059;-75
2021/07/31 11:34:06;;;;;;;0.20;0.20;;;;;;;25.02;52.78;97409.53;6154167;23;20021;-75
2021/07/31 11:36:39;;;;;;;0.90;0.60;;;;;;;25.01;53.10;97411.53;6161923;23;20058;-75